createdAt,value
2022-07-28T00:00:13.558Z,59.30
2022-07-28T00:01:14.021Z,58.90
2022-07-28T00:02:13.816Z,59.10
2022-07-28T00:03:14.169Z,59.20
2022-07-28T00:04:14.531Z,59.20
2022-07-28T00:05:13.252Z,59.20
2022-07-28T00:06:13.804Z,59.10
2022-07-28T00:07:14.395Z,59.40
2022-07-28T00:08:14.102Z,59.30
2022-07-28T00:09:13.359Z,59.10
2022-07-28T00:10:13.536Z,59.00
2022-07-28T00:11:13.955Z,59.30
2022-07-28T00:12:13.143Z,59.50
2022-07-28T00:13:13.776Z,59.00
2022-07-28T00:14:14.408Z,59.30
2022-07-28T00:15:13.899Z,59.40
2022-07-28T00:16:13.441Z,59.60
2022-07-28T00:17:13.663Z,59.50
2022-07-28T00:18:13.609Z,59.70
2022-07-28T00:19:14.058Z,59.50
2022-07-28T00:20:13.576Z,59.50
2022-07-28T00:21:13.906Z,59.50
2022-07-28T00:22:18.690Z,59.30
2022-07-28T00:23:14.081Z,59.70
2022-07-28T00:24:15.368Z,59.80
2022-07-28T00:25:13.953Z,59.80
2022-07-28T00:26:13.390Z,59.40
2022-07-28T00:27:13.521Z,59.50
2022-07-28T00:28:13.638Z,59.60
2022-07-28T00:29:13.966Z,59.50
2022-07-28T00:30:12.850Z,59.70
2022-07-28T00:31:14.296Z,59.40
2022-07-28T00:32:13.965Z,59.70
2022-07-28T00:33:13.479Z,60.00
2022-07-28T00:34:13.882Z,60.20
2022-07-28T00:35:14.945Z,60.10
2022-07-28T00:36:13.781Z,59.60
2022-07-28T00:37:14.746Z,59.70
2022-07-28T00:38:13.172Z,59.60
2022-07-28T00:39:13.015Z,59.80
2022-07-28T00:40:13.446Z,60.30
2022-07-28T00:41:13.393Z,59.90
2022-07-28T00:42:13.368Z,60.10
2022-07-28T00:43:14.831Z,60.20
2022-07-28T00:44:14.413Z,60.30
2022-07-28T00:45:18.890Z,60.10
2022-07-28T00:46:12.826Z,59.90
2022-07-28T00:47:14.086Z,60.10
2022-07-28T00:48:13.179Z,60.30
2022-07-28T00:49:13.421Z,60.30
2022-07-28T00:50:13.502Z,60.60
2022-07-28T00:51:13.529Z,60.40
2022-07-28T00:52:13.748Z,60.70
2022-07-28T00:53:13.654Z,60.70
2022-07-28T00:54:14.155Z,60.50
2022-07-28T00:55:13.372Z,60.80
2022-07-28T00:56:13.500Z,60.60
2022-07-28T00:57:13.422Z,60.90
2022-07-28T00:58:13.453Z,60.80
2022-07-28T00:59:13.845Z,60.90
2022-07-28T01:00:14.073Z,60.60
2022-07-28T01:01:13.340Z,60.70
2022-07-28T01:02:13.299Z,60.50
2022-07-28T01:03:13.456Z,60.90
2022-07-28T01:04:14.002Z,60.70
2022-07-28T01:05:13.364Z,60.60
2022-07-28T01:06:13.483Z,60.90
2022-07-28T01:07:14.922Z,60.90
2022-07-28T01:08:12.859Z,60.90
2022-07-28T01:09:13.781Z,60.80
2022-07-28T01:10:13.644Z,60.70
2022-07-28T01:11:13.658Z,60.60
2022-07-28T01:12:13.553Z,60.80
2022-07-28T01:13:13.688Z,60.60
2022-07-28T01:14:13.988Z,60.70
2022-07-28T01:15:13.331Z,60.70
2022-07-28T01:16:15.242Z,60.60
2022-07-28T01:17:13.247Z,60.50
2022-07-28T01:18:13.325Z,60.90
2022-07-28T01:19:13.344Z,61.10
2022-07-28T01:20:13.547Z,60.80
2022-07-28T01:21:13.458Z,60.40
2022-07-28T01:22:13.389Z,60.80
2022-07-28T01:23:14.486Z,61.20
2022-07-28T01:24:14.077Z,61.30
2022-07-28T01:25:13.337Z,61.30
2022-07-28T01:26:13.237Z,61.10
2022-07-28T01:27:13.175Z,61.50
2022-07-28T01:28:13.300Z,61.70
2022-07-28T01:29:13.325Z,61.30
2022-07-28T01:30:13.966Z,61.00
2022-07-28T01:31:12.942Z,61.30
2022-07-28T01:32:12.928Z,61.60
2022-07-28T01:33:12.906Z,61.40
2022-07-28T01:34:13.461Z,61.50
2022-07-28T01:35:13.580Z,61.50
2022-07-28T01:36:13.698Z,61.60
2022-07-28T01:37:13.780Z,61.20
2022-07-28T01:38:13.789Z,61.10
2022-07-28T01:39:13.774Z,61.30
2022-07-28T01:40:13.946Z,61.50
2022-07-28T01:41:13.137Z,61.70
2022-07-28T01:42:13.460Z,61.70
2022-07-28T01:43:13.455Z,62.00
2022-07-28T01:44:14.885Z,62.10
2022-07-28T01:45:13.217Z,62.00
2022-07-28T01:46:13.221Z,62.40
2022-07-28T01:47:13.544Z,62.00
2022-07-28T01:48:13.579Z,62.10
2022-07-28T01:49:13.726Z,62.10
2022-07-28T01:50:14.057Z,62.40
2022-07-28T01:51:13.517Z,62.60
2022-07-28T01:52:13.460Z,62.40
2022-07-28T01:53:14.556Z,62.70
2022-07-28T01:54:13.774Z,62.50
2022-07-28T01:55:12.893Z,62.50
2022-07-28T01:56:13.120Z,62.90
2022-07-28T01:57:13.130Z,62.70
2022-07-28T01:58:13.234Z,62.90
2022-07-28T01:59:13.345Z,62.60
2022-07-28T02:00:13.339Z,62.90
2022-07-28T02:01:13.339Z,62.70
2022-07-28T02:02:13.319Z,63.00
2022-07-28T02:03:13.331Z,63.10
2022-07-28T02:04:13.804Z,63.20
2022-07-28T02:05:13.611Z,63.10
2022-07-28T02:06:12.944Z,63.00
2022-07-28T02:07:12.984Z,63.30
2022-07-28T02:08:12.821Z,63.30
2022-07-28T02:09:14.127Z,63.40
2022-07-28T02:10:13.001Z,63.40
2022-07-28T02:11:12.998Z,63.20
2022-07-28T02:12:13.056Z,63.40
2022-07-28T02:13:18.206Z,63.10
2022-07-28T02:14:13.592Z,63.60
2022-07-28T02:15:13.956Z,63.50
2022-07-28T02:16:13.228Z,63.50
2022-07-28T02:17:13.492Z,63.50
2022-07-28T02:18:13.635Z,63.20
2022-07-28T02:19:13.140Z,63.30
2022-07-28T02:20:13.239Z,63.50
2022-07-28T02:21:13.377Z,64.00
2022-07-28T02:22:13.628Z,63.90
2022-07-28T02:23:13.649Z,64.00
2022-07-28T02:24:14.100Z,63.90
2022-07-28T02:25:13.451Z,63.80
2022-07-28T02:26:13.392Z,64.10
2022-07-28T02:27:13.476Z,63.90
2022-07-28T02:28:13.429Z,63.50
2022-07-28T02:29:33.319Z,63.70
2022-07-28T02:30:13.482Z,64.00
2022-07-28T02:31:13.556Z,64.50
2022-07-28T02:32:27.198Z,64.40
2022-07-28T02:33:13.580Z,64.50
2022-07-28T02:34:14.290Z,64.40
2022-07-28T02:35:13.774Z,64.40
2022-07-28T02:36:14.162Z,64.60
2022-07-28T02:37:13.272Z,64.30
2022-07-28T02:38:13.176Z,64.30
2022-07-28T02:39:13.192Z,65.10
2022-07-28T02:40:13.296Z,64.80
2022-07-28T02:41:13.357Z,64.70
2022-07-28T02:42:13.379Z,64.90
2022-07-28T02:43:13.414Z,65.40
2022-07-28T02:44:14.039Z,66.00
2022-07-28T02:45:13.535Z,65.60
2022-07-28T02:46:13.608Z,65.80
2022-07-28T02:47:13.769Z,65.90
2022-07-28T02:48:14.179Z,65.80
2022-07-28T02:49:13.151Z,65.70
2022-07-28T02:50:13.166Z,65.90
2022-07-28T02:51:13.652Z,66.10
2022-07-28T02:52:13.661Z,66.50
2022-07-28T02:53:14.961Z,66.50
2022-07-28T02:54:13.935Z,66.90
2022-07-28T02:55:13.321Z,66.50
2022-07-28T02:56:13.776Z,66.10
2022-07-28T02:57:13.709Z,66.50
2022-07-28T02:58:13.623Z,66.30
2022-07-28T02:59:14.050Z,66.80
2022-07-28T03:00:12.981Z,67.20
2022-07-28T03:01:13.077Z,67.50
2022-07-28T03:02:13.172Z,67.70
2022-07-28T03:03:13.311Z,67.80
2022-07-28T03:04:13.479Z,67.60
2022-07-28T03:05:13.870Z,67.70
2022-07-28T03:06:12.885Z,67.60
2022-07-28T03:07:14.423Z,67.20
2022-07-28T03:08:13.481Z,67.40
2022-07-28T03:09:14.644Z,68.20
2022-07-28T03:10:13.840Z,68.00
2022-07-28T03:11:13.235Z,67.90
2022-07-28T03:12:13.341Z,67.90
2022-07-28T03:13:13.703Z,67.80
2022-07-28T03:14:14.183Z,68.10
2022-07-28T03:15:13.510Z,68.10
2022-07-28T03:16:13.598Z,68.20
2022-07-28T03:17:13.746Z,68.20
2022-07-28T03:18:14.122Z,68.50
2022-07-28T03:19:13.106Z,68.60
2022-07-28T03:20:13.019Z,68.60
2022-07-28T03:21:13.059Z,68.50
2022-07-28T03:22:13.057Z,68.40
2022-07-28T03:23:13.036Z,68.60
2022-07-28T03:24:13.159Z,68.80
2022-07-28T03:25:13.391Z,68.90
2022-07-28T03:26:13.390Z,69.00
2022-07-28T03:27:13.598Z,69.40
2022-07-28T03:28:13.523Z,69.50
2022-07-28T03:29:14.604Z,69.40
2022-07-28T03:30:13.508Z,69.40
2022-07-28T03:31:13.809Z,69.60
2022-07-28T03:32:13.852Z,69.80
2022-07-28T03:33:13.856Z,70.20
2022-07-28T03:34:14.199Z,70.40
2022-07-28T03:35:13.685Z,70.10
2022-07-28T03:36:13.948Z,70.10
2022-07-28T03:37:13.081Z,70.10
2022-07-28T03:38:13.142Z,70.30
2022-07-28T03:39:13.310Z,70.60
2022-07-28T03:40:13.535Z,70.40
2022-07-28T03:41:14.594Z,70.40
2022-07-28T03:42:13.844Z,70.50
2022-07-28T03:43:14.101Z,70.10
2022-07-28T03:44:14.135Z,70.30
2022-07-28T03:45:13.154Z,70.20
2022-07-28T03:46:13.590Z,70.10
2022-07-28T03:47:13.856Z,70.00
2022-07-28T03:48:14.029Z,70.50
2022-07-28T03:49:13.516Z,71.10
2022-07-28T03:50:13.597Z,71.10
2022-07-28T03:51:13.699Z,70.80
2022-07-28T03:52:13.853Z,70.70
2022-07-28T03:53:13.919Z,70.80
2022-07-28T03:54:13.292Z,70.90
2022-07-28T03:55:13.721Z,71.20
2022-07-28T03:56:13.812Z,71.10
2022-07-28T03:57:13.980Z,71.40
2022-07-28T03:58:13.363Z,71.50
2022-07-28T03:59:13.346Z,71.60
2022-07-28T04:00:13.316Z,71.70
2022-07-28T04:01:13.495Z,71.70
2022-07-28T04:02:13.639Z,71.70
2022-07-28T04:03:36.382Z,71.80
2022-07-28T04:04:13.545Z,71.70
2022-07-28T04:05:13.678Z,71.60
2022-07-28T04:06:14.160Z,71.40
2022-07-28T04:07:18.178Z,71.60
2022-07-28T04:08:13.232Z,71.30
2022-07-28T04:09:13.269Z,71.10
2022-07-28T04:10:13.416Z,71.30
2022-07-28T04:11:13.348Z,70.80
2022-07-28T04:12:13.531Z,70.90
2022-07-28T04:13:13.591Z,71.10
2022-07-28T04:14:16.802Z,71.20
2022-07-28T04:15:13.252Z,71.40
2022-07-28T04:16:13.466Z,71.40
2022-07-28T04:17:13.869Z,71.40
2022-07-28T04:18:12.930Z,71.50
2022-07-28T04:19:12.917Z,71.30
2022-07-28T04:20:13.059Z,71.50
2022-07-28T04:21:13.282Z,71.50
2022-07-28T04:22:13.607Z,71.50
2022-07-28T04:23:13.500Z,71.60
2022-07-28T04:24:13.611Z,71.50
2022-07-28T04:25:14.108Z,71.20
2022-07-28T04:26:13.404Z,70.80
2022-07-28T04:27:13.257Z,70.70
2022-07-28T04:28:13.205Z,70.60
2022-07-28T04:29:13.217Z,70.80
2022-07-28T04:30:13.263Z,70.50
2022-07-28T04:31:13.360Z,70.20
2022-07-28T04:32:13.437Z,70.00
2022-07-28T04:33:13.413Z,70.20
2022-07-28T04:34:13.866Z,70.00
2022-07-28T04:35:17.125Z,70.00
2022-07-28T04:36:13.774Z,69.70
2022-07-28T04:37:13.822Z,70.10
2022-07-28T04:38:13.853Z,69.90
2022-07-28T04:39:14.025Z,70.40
2022-07-28T04:40:13.247Z,70.20
2022-07-28T04:41:13.349Z,70.30
2022-07-28T04:42:13.347Z,70.00
2022-07-28T04:43:13.462Z,69.40
2022-07-28T04:44:13.783Z,69.60
2022-07-28T04:45:12.937Z,69.40
2022-07-28T04:46:15.164Z,69.00
2022-07-28T04:47:13.623Z,68.70
2022-07-28T04:48:13.598Z,68.90
2022-07-28T04:49:13.666Z,69.10
2022-07-28T04:50:13.706Z,68.90
2022-07-28T04:51:13.661Z,69.30
2022-07-28T04:52:13.591Z,69.10
2022-07-28T04:53:13.586Z,69.00
2022-07-28T04:54:13.846Z,69.00
2022-07-28T04:55:13.497Z,68.90
2022-07-28T04:56:13.693Z,68.90
2022-07-28T04:57:13.722Z,69.10
2022-07-28T04:58:13.555Z,69.60
2022-07-28T04:59:13.948Z,69.50
2022-07-28T05:00:13.319Z,69.40
2022-07-28T05:01:13.254Z,69.20
2022-07-28T05:02:13.159Z,69.80
2022-07-28T05:03:13.073Z,69.60
2022-07-28T05:04:13.278Z,69.40
2022-07-28T05:05:13.772Z,69.10
2022-07-28T05:06:14.286Z,69.40
2022-07-28T05:07:13.548Z,69.30
2022-07-28T05:08:13.621Z,69.20
2022-07-28T05:09:13.762Z,69.50
2022-07-28T05:10:13.725Z,69.60
2022-07-28T05:11:13.879Z,69.90
2022-07-28T05:12:14.203Z,70.20
2022-07-28T05:13:13.286Z,70.00
2022-07-28T05:14:13.733Z,70.10
2022-07-28T05:15:13.197Z,70.40
2022-07-28T05:16:13.149Z,70.10
2022-07-28T05:17:13.051Z,69.70
2022-07-28T05:18:13.392Z,69.50
2022-07-28T05:19:13.493Z,69.90
2022-07-28T05:20:13.875Z,70.10
2022-07-28T05:21:13.940Z,69.90
2022-07-28T05:22:14.566Z,70.00
2022-07-28T05:23:13.599Z,69.90
2022-07-28T05:24:13.840Z,70.10
2022-07-28T05:25:13.172Z,70.00
2022-07-28T05:26:13.937Z,70.00
2022-07-28T05:27:13.079Z,70.20
2022-07-28T05:28:12.943Z,70.50
2022-07-28T05:29:15.191Z,70.60
2022-07-28T05:30:13.101Z,70.40
2022-07-28T05:31:13.137Z,70.20
2022-07-28T05:32:16.417Z,70.10
2022-07-28T05:33:13.136Z,70.10
2022-07-28T05:34:13.564Z,70.10
2022-07-28T05:35:13.191Z,70.10
2022-07-28T05:36:13.184Z,70.10
2022-07-28T05:37:13.556Z,70.00
2022-07-28T05:38:13.759Z,69.90
2022-07-28T05:39:13.722Z,69.80
2022-07-28T05:40:13.608Z,70.20
2022-07-28T05:41:13.594Z,69.60
2022-07-28T05:42:13.935Z,69.60
2022-07-28T05:43:17.892Z,69.40
2022-07-28T05:44:13.084Z,69.50
2022-07-28T05:45:16.176Z,69.10
2022-07-28T05:46:13.283Z,69.40
2022-07-28T05:47:13.299Z,68.90
2022-07-28T05:48:13.170Z,68.70
2022-07-28T05:49:13.257Z,68.70
2022-07-28T05:50:13.270Z,68.80
2022-07-28T05:51:13.280Z,68.80
2022-07-28T05:52:13.172Z,68.40
2022-07-28T05:53:13.171Z,68.10
2022-07-28T05:54:13.317Z,68.70
2022-07-28T05:55:13.668Z,69.00
2022-07-28T05:56:13.878Z,68.60
2022-07-28T05:57:15.409Z,68.80
2022-07-28T05:58:13.542Z,68.30
2022-07-28T05:59:14.014Z,68.00
2022-07-28T06:00:12.950Z,68.40
2022-07-28T06:01:13.469Z,68.20
2022-07-28T06:02:13.550Z,67.90
2022-07-28T06:03:13.754Z,67.70
2022-07-28T06:04:27.147Z,67.80
2022-07-28T06:05:13.004Z,67.20
2022-07-28T06:06:17.897Z,66.70
2022-07-28T06:07:12.840Z,67.10
2022-07-28T06:08:13.764Z,66.70
2022-07-28T06:09:13.965Z,67.00
2022-07-28T06:10:13.067Z,66.70
2022-07-28T06:11:23.262Z,67.00
2022-07-28T06:12:13.624Z,67.00
2022-07-28T06:13:13.673Z,66.60
2022-07-28T06:14:14.045Z,66.80
2022-07-28T06:15:14.189Z,66.60
2022-07-28T06:16:18.145Z,67.30
2022-07-28T06:17:13.253Z,66.60
2022-07-28T06:18:18.298Z,66.30
2022-07-28T06:19:18.416Z,66.40
2022-07-28T06:20:18.373Z,66.50
2022-07-28T06:21:13.551Z,66.20
2022-07-28T06:22:13.662Z,66.00
2022-07-28T06:23:13.886Z,66.10
2022-07-28T06:24:14.253Z,66.30
2022-07-28T06:25:13.614Z,66.10
2022-07-28T06:26:18.984Z,66.40
2022-07-28T06:27:12.835Z,66.10
2022-07-28T06:28:14.058Z,66.10
2022-07-28T06:29:13.363Z,66.20
2022-07-28T06:30:13.729Z,66.10
2022-07-28T06:31:13.958Z,66.20
2022-07-28T06:32:19.341Z,66.10
2022-07-28T06:33:17.289Z,66.20
2022-07-28T06:34:15.527Z,66.70
2022-07-28T06:35:13.834Z,65.90
2022-07-28T06:36:18.992Z,66.20
2022-07-28T06:37:13.022Z,65.90
2022-07-28T06:38:18.323Z,65.50
2022-07-28T06:39:13.749Z,66.00
2022-07-28T06:40:13.683Z,64.80
2022-07-28T06:41:13.981Z,64.80
2022-07-28T06:42:13.362Z,64.90
2022-07-28T06:43:14.290Z,64.80
2022-07-28T06:44:13.815Z,64.00
2022-07-28T06:45:21.351Z,64.20
2022-07-28T06:46:14.896Z,64.00
2022-07-28T06:47:14.231Z,63.90
2022-07-28T06:48:13.337Z,64.40
2022-07-28T06:49:13.819Z,63.20
2022-07-28T06:50:25.917Z,63.40
2022-07-28T06:51:13.055Z,63.60
2022-07-28T06:52:13.342Z,62.60
2022-07-28T06:53:13.280Z,62.50
2022-07-28T06:54:19.205Z,62.30
2022-07-28T06:55:13.703Z,63.50
2022-07-28T06:56:15.774Z,62.20
2022-07-28T06:57:13.042Z,61.50
2022-07-28T06:58:13.211Z,60.90
2022-07-28T06:59:14.906Z,61.30
2022-07-28T07:00:13.136Z,61.60
2022-07-28T07:01:13.310Z,61.70
2022-07-28T07:02:18.810Z,61.60
2022-07-28T07:03:13.993Z,62.20
2022-07-28T07:04:13.198Z,61.40
2022-07-28T07:05:13.503Z,61.10
2022-07-28T07:06:13.507Z,60.40
2022-07-28T07:07:17.018Z,60.20
2022-07-28T07:08:18.665Z,60.40
2022-07-28T07:09:13.630Z,60.60
2022-07-28T07:10:13.635Z,60.50
2022-07-28T07:11:13.537Z,60.80
2022-07-28T07:12:13.818Z,59.90
2022-07-28T07:13:13.929Z,60.30
2022-07-28T07:14:13.943Z,60.20
2022-07-28T07:15:13.156Z,60.80
2022-07-28T07:16:13.112Z,59.60
2022-07-28T07:17:18.426Z,59.60
2022-07-28T07:18:13.978Z,59.20
2022-07-28T07:19:15.914Z,58.60
2022-07-28T07:20:18.550Z,58.80
2022-07-28T07:21:13.967Z,58.60
2022-07-28T07:22:13.523Z,58.50
2022-07-28T07:23:13.615Z,58.10
2022-07-28T07:24:13.986Z,56.90
2022-07-28T07:25:13.251Z,57.20
2022-07-28T07:26:13.421Z,57.70
2022-07-28T07:27:13.311Z,56.50
2022-07-28T07:28:13.225Z,56.50
2022-07-28T07:29:13.217Z,56.70
2022-07-28T07:30:13.459Z,57.30
2022-07-28T07:31:13.738Z,57.80
2022-07-28T07:32:13.728Z,57.50
2022-07-28T07:33:13.572Z,57.30
2022-07-28T07:34:14.352Z,58.10
2022-07-28T07:35:14.603Z,57.90
2022-07-28T07:36:13.771Z,57.20
2022-07-28T07:37:14.223Z,57.20
2022-07-28T07:38:13.684Z,57.10
2022-07-28T07:39:13.736Z,56.30
2022-07-28T07:40:18.747Z,57.20
2022-07-28T07:41:13.848Z,55.90
2022-07-28T07:42:13.490Z,56.10
2022-07-28T07:43:14.683Z,55.60
2022-07-28T07:44:14.188Z,55.10
2022-07-28T07:45:13.637Z,54.80
2022-07-28T07:46:13.854Z,55.20
2022-07-28T07:47:13.343Z,54.80
2022-07-28T07:48:13.517Z,54.80
2022-07-28T07:49:13.478Z,54.70
2022-07-28T07:50:24.800Z,55.10
2022-07-28T07:51:15.717Z,55.00
2022-07-28T07:52:13.050Z,55.70
2022-07-28T07:53:18.580Z,55.30
2022-07-28T07:54:13.912Z,54.80
2022-07-28T07:55:18.255Z,55.00
2022-07-28T07:56:13.245Z,55.00
2022-07-28T07:57:13.396Z,54.00
2022-07-28T07:58:13.618Z,54.60
2022-07-28T07:59:13.669Z,54.60
2022-07-28T08:00:28.493Z,53.50
2022-07-28T08:01:13.328Z,53.80
2022-07-28T08:02:13.578Z,52.40
2022-07-28T08:03:14.105Z,52.70
2022-07-28T08:04:15.114Z,52.30
2022-07-28T08:05:13.431Z,52.60
2022-07-28T08:06:13.400Z,52.00
2022-07-28T08:07:12.905Z,52.10
2022-07-28T08:08:13.403Z,51.60
2022-07-28T08:09:13.560Z,52.00
2022-07-28T08:10:13.873Z,51.40
2022-07-28T08:11:13.809Z,51.30
2022-07-28T08:12:13.821Z,51.90
2022-07-28T08:13:13.790Z,51.70
2022-07-28T08:14:14.285Z,51.00
2022-07-28T08:15:13.457Z,51.40
2022-07-28T08:16:13.614Z,50.30
2022-07-28T08:17:14.058Z,51.30
2022-07-28T08:18:13.207Z,50.50
2022-07-28T08:19:14.477Z,50.60
2022-07-28T08:20:13.455Z,50.60
2022-07-28T08:21:13.309Z,50.10
2022-07-28T08:22:13.538Z,49.70
2022-07-28T08:23:13.883Z,49.60
2022-07-28T08:24:13.430Z,50.50
2022-07-28T08:25:12.886Z,50.50
2022-07-28T08:26:14.360Z,50.30
2022-07-28T08:27:13.747Z,50.00
2022-07-28T08:28:13.689Z,50.00
2022-07-28T08:29:13.678Z,49.50
2022-07-28T08:30:13.703Z,49.30
2022-07-28T08:31:14.027Z,49.30
2022-07-28T08:32:13.296Z,50.00
2022-07-28T08:33:13.570Z,49.50
2022-07-28T08:34:30.957Z,50.40
2022-07-28T08:35:32.286Z,49.20
2022-07-28T08:36:13.309Z,49.50
2022-07-28T08:37:13.646Z,48.80
2022-07-28T08:38:13.770Z,48.80
2022-07-28T08:39:14.677Z,47.80
2022-07-28T08:40:13.762Z,48.20
2022-07-28T08:41:18.819Z,48.60
2022-07-28T08:42:14.083Z,48.70
2022-07-28T08:43:13.019Z,48.60
2022-07-28T08:44:13.725Z,49.00
2022-07-28T08:45:13.031Z,49.10
2022-07-28T08:46:13.384Z,49.70
2022-07-28T08:47:13.433Z,48.90
2022-07-28T08:48:13.518Z,48.10
2022-07-28T08:49:14.793Z,48.20
2022-07-28T08:50:13.043Z,47.50
2022-07-28T08:51:13.061Z,47.60
2022-07-28T08:52:13.030Z,48.10
2022-07-28T08:53:13.160Z,47.60
2022-07-28T08:54:13.592Z,47.50
2022-07-28T08:55:19.162Z,47.80
2022-07-28T08:56:13.825Z,47.60
2022-07-28T08:57:13.794Z,46.60
2022-07-28T08:58:13.834Z,46.30
2022-07-28T08:59:14.321Z,46.20
2022-07-28T09:00:13.217Z,46.10
2022-07-28T09:01:13.627Z,47.70
2022-07-28T09:02:13.767Z,47.60
2022-07-28T09:03:13.764Z,46.20
2022-07-28T09:04:14.609Z,47.30
2022-07-28T09:05:12.894Z,47.00
2022-07-28T09:06:13.165Z,46.60
2022-07-28T09:07:14.668Z,46.50
2022-07-28T09:08:18.656Z,46.10
2022-07-28T09:09:13.661Z,45.00
2022-07-28T09:10:13.667Z,45.70
2022-07-28T09:11:14.091Z,46.70
2022-07-28T09:12:13.196Z,45.90
2022-07-28T09:13:13.680Z,46.70
2022-07-28T09:14:14.241Z,46.30
2022-07-28T09:15:13.895Z,46.00
2022-07-28T09:16:13.155Z,45.80
2022-07-28T09:17:13.332Z,44.10
2022-07-28T09:18:13.473Z,44.90
2022-07-28T09:19:13.827Z,44.90
2022-07-28T09:20:13.756Z,44.20
2022-07-28T09:21:14.304Z,43.80
2022-07-28T09:22:13.244Z,44.70
2022-07-28T09:23:43.308Z,44.70
2022-07-28T09:24:14.476Z,44.50
2022-07-28T09:25:13.774Z,45.10
2022-07-28T09:26:13.711Z,46.00
2022-07-28T09:27:13.771Z,44.60
2022-07-28T09:28:13.886Z,45.10
2022-07-28T09:29:13.052Z,44.50
2022-07-28T09:30:14.004Z,44.70
2022-07-28T09:31:13.201Z,43.20
2022-07-28T09:32:14.515Z,42.80
2022-07-28T09:33:42.060Z,43.40
2022-07-28T09:34:14.231Z,42.60
2022-07-28T09:35:13.812Z,41.30
2022-07-28T09:36:13.668Z,41.80
2022-07-28T09:37:13.891Z,41.20
2022-07-28T09:38:14.535Z,41.30
2022-07-28T09:39:14.756Z,40.50
2022-07-28T09:40:13.905Z,38.70
2022-07-28T09:41:13.294Z,37.60
2022-07-28T09:42:13.199Z,38.10
2022-07-28T09:43:13.265Z,37.80
2022-07-28T09:44:13.809Z,37.30
2022-07-28T09:45:22.797Z,36.10
2022-07-28T09:46:13.411Z,36.80
2022-07-28T09:47:13.674Z,36.20
2022-07-28T09:48:13.768Z,36.00
2022-07-28T09:49:12.962Z,34.60
2022-07-28T09:50:13.129Z,34.60
2022-07-28T09:51:13.470Z,34.60
2022-07-28T09:52:13.765Z,35.80
2022-07-28T09:53:14.706Z,34.50
2022-07-28T09:54:14.554Z,36.20
2022-07-28T09:55:12.914Z,36.60
2022-07-28T09:56:13.347Z,35.90
2022-07-28T09:57:13.680Z,34.50
2022-07-28T09:58:14.167Z,36.60
2022-07-28T09:59:15.050Z,38.00
2022-07-28T10:00:13.063Z,38.30
2022-07-28T10:01:13.967Z,38.30
2022-07-28T10:02:13.145Z,36.60
2022-07-28T10:03:13.635Z,35.40
2022-07-28T10:04:13.867Z,35.70
2022-07-28T10:05:14.172Z,36.80
2022-07-28T10:06:13.206Z,36.00
2022-07-28T10:07:13.128Z,35.00
2022-07-28T10:08:13.172Z,36.20
2022-07-28T10:09:13.222Z,36.30
2022-07-28T10:10:14.346Z,36.90
2022-07-28T10:11:13.310Z,38.30
2022-07-28T10:12:13.278Z,38.20
2022-07-28T10:13:13.420Z,37.40
2022-07-28T10:14:14.104Z,36.70
2022-07-28T10:15:13.775Z,35.60
2022-07-28T10:16:13.995Z,36.50
2022-07-28T10:17:13.000Z,35.30
2022-07-28T10:18:13.773Z,35.70
2022-07-28T10:19:19.250Z,36.10
2022-07-28T10:20:14.448Z,37.00
2022-07-28T10:21:13.577Z,36.70
2022-07-28T10:22:13.714Z,34.90
2022-07-28T10:23:13.633Z,34.80
2022-07-28T10:24:14.035Z,35.80
2022-07-28T10:25:13.426Z,34.90
2022-07-28T10:26:13.428Z,37.00
2022-07-28T10:27:13.531Z,35.20
2022-07-28T10:28:13.850Z,35.60
2022-07-28T10:29:13.757Z,34.60
2022-07-28T10:30:13.674Z,33.80
2022-07-28T10:31:14.204Z,34.10
2022-07-28T10:32:13.362Z,33.20
2022-07-28T10:33:13.736Z,32.60
2022-07-28T10:34:16.306Z,33.80
2022-07-28T10:35:13.473Z,33.50
2022-07-28T10:36:15.138Z,31.60
2022-07-28T10:37:13.189Z,32.20
2022-07-28T10:38:14.094Z,33.20
2022-07-28T10:39:13.198Z,32.60
2022-07-28T10:40:13.170Z,31.70
2022-07-28T10:41:13.145Z,32.20
2022-07-28T10:42:13.043Z,32.20
2022-07-28T10:43:14.878Z,32.20
2022-07-28T10:44:14.707Z,31.50
2022-07-28T10:45:12.876Z,30.80
2022-07-28T10:46:16.371Z,29.50
2022-07-28T10:47:18.503Z,32.20
2022-07-28T10:48:13.496Z,32.30
2022-07-28T10:49:13.552Z,31.40
2022-07-28T10:50:13.817Z,33.60
2022-07-28T10:51:13.726Z,33.40
2022-07-28T10:52:37.383Z,32.30
2022-07-28T10:53:13.634Z,33.20
2022-07-28T10:54:17.714Z,34.40
2022-07-28T10:55:13.002Z,32.90
2022-07-28T10:56:13.886Z,33.20
2022-07-28T10:57:12.893Z,33.20
2022-07-28T10:58:12.904Z,35.10
2022-07-28T10:59:13.365Z,34.30
2022-07-28T11:00:15.565Z,34.10
2022-07-28T11:01:32.583Z,33.50
2022-07-28T11:02:14.673Z,34.10
2022-07-28T11:03:14.380Z,33.80
2022-07-28T11:04:13.798Z,31.90
2022-07-28T11:05:12.895Z,33.40
2022-07-28T11:06:14.813Z,31.90
2022-07-28T11:07:14.048Z,32.60
2022-07-28T11:08:13.123Z,34.00
2022-07-28T11:09:13.051Z,34.00
2022-07-28T11:10:13.132Z,32.80
2022-07-28T11:11:13.180Z,34.00
2022-07-28T11:12:13.305Z,32.30
2022-07-28T11:13:14.359Z,33.20
2022-07-28T11:14:14.041Z,32.30
2022-07-28T11:15:18.481Z,32.60
2022-07-28T11:16:13.470Z,31.20
2022-07-28T11:17:13.752Z,32.70
2022-07-28T11:18:15.234Z,32.60
2022-07-28T11:19:40.472Z,29.50
2022-07-28T11:20:24.794Z,29.50
2022-07-28T11:21:16.351Z,29.90
2022-07-28T11:22:13.938Z,30.90
2022-07-28T11:23:12.900Z,31.50
2022-07-28T11:24:17.865Z,30.60
2022-07-28T11:25:18.750Z,31.50
2022-07-28T11:26:14.311Z,31.50
2022-07-28T11:27:15.025Z,32.30
2022-07-28T11:28:14.462Z,32.30
2022-07-28T11:29:15.311Z,32.80
2022-07-28T11:30:14.883Z,31.80
2022-07-28T11:31:13.968Z,31.00
2022-07-28T11:32:13.883Z,32.40
2022-07-28T11:33:13.790Z,31.70
2022-07-28T11:34:15.567Z,31.80
2022-07-28T11:35:15.338Z,31.40
2022-07-28T11:36:14.755Z,31.10
2022-07-28T11:37:15.541Z,31.20
2022-07-28T11:38:15.922Z,30.70
2022-07-28T11:39:17.665Z,30.60
2022-07-28T11:40:15.331Z,32.60
2022-07-28T11:41:15.218Z,32.50
2022-07-28T11:42:14.808Z,31.60
2022-07-28T11:43:17.274Z,29.60
2022-07-28T11:44:15.077Z,30.60
2022-07-28T11:45:15.153Z,31.90
2022-07-28T11:46:14.157Z,32.20
2022-07-28T11:47:13.685Z,32.00
2022-07-28T11:48:14.155Z,33.70
2022-07-28T11:49:14.950Z,32.20
2022-07-28T11:50:18.340Z,30.30
2022-07-28T11:51:19.204Z,31.70
2022-07-28T11:52:13.710Z,32.20
2022-07-28T11:53:14.785Z,33.30
2022-07-28T11:54:18.785Z,34.00
2022-07-28T11:55:15.336Z,33.60
2022-07-28T11:56:15.047Z,32.70
2022-07-28T11:57:18.284Z,32.30
2022-07-28T11:58:14.777Z,31.30
2022-07-28T11:59:17.279Z,29.40
2022-07-28T12:00:14.366Z,30.90
2022-07-28T12:01:17.791Z,32.70
2022-07-28T12:02:14.910Z,33.40
2022-07-28T12:03:14.449Z,33.90
2022-07-28T12:04:16.937Z,34.50
2022-07-28T12:05:15.964Z,33.90
2022-07-28T12:06:14.677Z,31.50
2022-07-28T12:07:14.772Z,31.90
2022-07-28T12:08:14.394Z,31.40
2022-07-28T12:09:13.744Z,32.80
2022-07-28T12:10:25.955Z,33.20
2022-07-28T12:11:15.776Z,35.00
2022-07-28T12:12:14.152Z,34.40
2022-07-28T12:13:15.181Z,34.30
2022-07-28T12:14:15.153Z,33.90
2022-07-28T12:15:14.996Z,34.10
2022-07-28T12:16:14.388Z,32.30
2022-07-28T12:17:14.699Z,30.70
2022-07-28T12:18:13.261Z,32.30
2022-07-28T12:19:17.094Z,33.90
2022-07-28T12:20:15.568Z,33.80
2022-07-28T12:21:15.144Z,33.00
2022-07-28T12:22:15.580Z,33.10
2022-07-28T12:23:17.622Z,31.70
2022-07-28T12:24:15.581Z,31.10
2022-07-28T12:25:14.027Z,31.40
2022-07-28T12:26:18.030Z,31.00
2022-07-28T12:27:15.339Z,30.90
2022-07-28T12:28:14.828Z,29.80
2022-07-28T12:29:15.220Z,31.20
2022-07-28T12:30:19.011Z,31.10
2022-07-28T12:31:18.102Z,30.40
2022-07-28T12:32:14.924Z,29.00
2022-07-28T12:33:17.402Z,28.30
2022-07-28T12:34:15.658Z,27.50
2022-07-28T12:35:17.353Z,26.70
2022-07-28T12:36:19.096Z,29.30
2022-07-28T12:37:17.774Z,30.50
2022-07-28T12:38:16.676Z,31.40
2022-07-28T12:39:14.787Z,31.90
2022-07-28T12:40:16.706Z,30.40
2022-07-28T12:41:18.130Z,28.60
2022-07-28T12:42:16.755Z,28.10
2022-07-28T12:43:15.123Z,28.60
2022-07-28T12:44:17.943Z,27.60
2022-07-28T12:45:17.128Z,26.50
2022-07-28T12:46:15.859Z,27.80
2022-07-28T12:47:18.898Z,29.10
2022-07-28T12:48:17.653Z,29.70
2022-07-28T12:49:20.174Z,30.10
2022-07-28T12:50:18.129Z,30.50
2022-07-28T12:51:16.638Z,30.90
2022-07-28T12:52:18.251Z,30.40